sensor_id;sensor_type;location;lat;lon;timestamp;P1;durP1;ratioP1;P2;durP2;ratioP2
33421;SDS011;19763;55.798;37.782;2024-01-27T00:00:06;26.80;;;18.05;;
33421;SDS011;19763;55.798;37.782;2024-01-27T00:02:33;23.55;;;16.83;;
33421;SDS011;19763;55.798;37.782;2024-01-27T00:04:58;23.95;;;17.33;;
33421;SDS011;19763;55.798;37.782;2024-01-27T00:07:24;22.88;;;16.52;;
33421;SDS011;19763;55.798;37.782;2024-01-27T00:09:52;26.77;;;17.10;;
33421;SDS011;19763;55.798;37.782;2024-01-27T00:12:17;24.77;;;17.33;;
33421;SDS011;19763;55.798;37.782;2024-01-27T00:14:43;26.50;;;18.13;;
33421;SDS011;19763;55.798;37.782;2024-01-27T00:17:09;23.48;;;16.90;;
33421;SDS011;19763;55.798;37.782;2024-01-27T00:19:35;22.65;;;16.23;;
33421;SDS011;19763;55.798;37.782;2024-01-27T00:22:01;23.58;;;16.48;;
33421;SDS011;19763;55.798;37.782;2024-01-27T00:24:27;25.15;;;17.08;;
33421;SDS011;19763;55.798;37.782;2024-01-27T00:26:53;26.52;;;17.15;;
33421;SDS011;19763;55.798;37.782;2024-01-27T00:29:19;26.77;;;17.67;;
33421;SDS011;19763;55.798;37.782;2024-01-27T00:31:44;27.23;;;17.42;;
33421;SDS011;19763;55.798;37.782;2024-01-27T00:34:10;28.92;;;17.73;;
33421;SDS011;19763;55.798;37.782;2024-01-27T00:36:35;25.48;;;17.33;;
33421;SDS011;19763;55.798;37.782;2024-01-27T00:39:04;23.40;;;16.05;;
33421;SDS011;19763;55.798;37.782;2024-01-27T00:41:29;22.83;;;16.08;;
33421;SDS011;19763;55.798;37.782;2024-01-27T00:43:55;24.95;;;17.15;;
33421;SDS011;19763;55.798;37.782;2024-01-27T00:46:21;24.23;;;15.52;;
33421;SDS011;19763;55.798;37.782;2024-01-27T00:48:46;20.88;;;15.48;;
33421;SDS011;19763;55.798;37.782;2024-01-27T00:51:13;25.23;;;16.42;;
33421;SDS011;19763;55.798;37.782;2024-01-27T00:53:38;24.45;;;16.33;;
33421;SDS011;19763;55.798;37.782;2024-01-27T00:56:05;22.67;;;14.73;;
33421;SDS011;19763;55.798;37.782;2024-01-27T00:58:30;23.17;;;15.55;;
33421;SDS011;19763;55.798;37.782;2024-01-27T01:00:56;23.67;;;15.70;;
33421;SDS011;19763;55.798;37.782;2024-01-27T01:03:22;22.70;;;15.65;;
33421;SDS011;19763;55.798;37.782;2024-01-27T01:05:47;23.85;;;16.83;;
33421;SDS011;19763;55.798;37.782;2024-01-27T01:08:13;24.35;;;16.85;;
33421;SDS011;19763;55.798;37.782;2024-01-27T01:10:39;22.73;;;16.40;;
33421;SDS011;19763;55.798;37.782;2024-01-27T01:13:04;25.60;;;17.05;;
33421;SDS011;19763;55.798;37.782;2024-01-27T01:15:30;24.02;;;16.08;;
33421;SDS011;19763;55.798;37.782;2024-01-27T01:17:56;24.23;;;16.23;;
33421;SDS011;19763;55.798;37.782;2024-01-27T01:20:22;24.15;;;16.50;;
33421;SDS011;19763;55.798;37.782;2024-01-27T01:22:48;23.83;;;16.30;;
33421;SDS011;19763;55.798;37.782;2024-01-27T01:25:13;20.60;;;14.85;;
33421;SDS011;19763;55.798;37.782;2024-01-27T01:27:39;22.58;;;15.90;;
33421;SDS011;19763;55.798;37.782;2024-01-27T01:30:05;23.33;;;16.40;;
33421;SDS011;19763;55.798;37.782;2024-01-27T01:32:31;24.40;;;16.00;;
33421;SDS011;19763;55.798;37.782;2024-01-27T01:34:56;22.70;;;16.00;;
33421;SDS011;19763;55.798;37.782;2024-01-27T01:37:22;23.45;;;15.77;;
33421;SDS011;19763;55.798;37.782;2024-01-27T01:39:47;22.33;;;14.30;;
33421;SDS011;19763;55.798;37.782;2024-01-27T01:42:13;21.35;;;14.00;;
33421;SDS011;19763;55.798;37.782;2024-01-27T01:44:39;23.38;;;15.75;;
33421;SDS011;19763;55.798;37.782;2024-01-27T01:47:04;24.75;;;14.82;;
33421;SDS011;19763;55.798;37.782;2024-01-27T01:49:30;21.27;;;14.60;;
33421;SDS011;19763;55.798;37.782;2024-01-27T01:51:56;21.08;;;14.35;;
33421;SDS011;19763;55.798;37.782;2024-01-27T01:54:22;22.08;;;14.90;;
33421;SDS011;19763;55.798;37.782;2024-01-27T01:56:52;22.17;;;13.80;;
33421;SDS011;19763;55.798;37.782;2024-01-27T01:59:20;22.25;;;14.43;;
33421;SDS011;19763;55.798;37.782;2024-01-27T02:01:45;22.67;;;14.10;;
33421;SDS011;19763;55.798;37.782;2024-01-27T02:04:11;19.55;;;13.65;;
33421;SDS011;19763;55.798;37.782;2024-01-27T02:06:36;21.08;;;13.90;;
33421;SDS011;19763;55.798;37.782;2024-01-27T02:09:02;21.05;;;13.77;;
33421;SDS011;19763;55.798;37.782;2024-01-27T02:11:27;18.45;;;13.45;;
33421;SDS011;19763;55.798;37.782;2024-01-27T02:13:53;20.27;;;14.38;;
33421;SDS011;19763;55.798;37.782;2024-01-27T02:16:19;22.58;;;15.07;;
33421;SDS011;19763;55.798;37.782;2024-01-27T02:18:45;24.25;;;15.98;;
33421;SDS011;19763;55.798;37.782;2024-01-27T02:21:10;22.33;;;15.23;;
33421;SDS011;19763;55.798;37.782;2024-01-27T02:23:36;21.60;;;14.07;;
33421;SDS011;19763;55.798;37.782;2024-01-27T02:26:01;23.08;;;14.70;;
33421;SDS011;19763;55.798;37.782;2024-01-27T02:28:27;22.17;;;14.95;;
33421;SDS011;19763;55.798;37.782;2024-01-27T02:30:52;21.25;;;14.80;;
33421;SDS011;19763;55.798;37.782;2024-01-27T02:33:18;20.30;;;13.63;;
33421;SDS011;19763;55.798;37.782;2024-01-27T02:35:44;20.83;;;14.40;;
33421;SDS011;19763;55.798;37.782;2024-01-27T02:38:09;21.92;;;14.32;;
33421;SDS011;19763;55.798;37.782;2024-01-27T02:40:35;19.20;;;13.40;;
33421;SDS011;19763;55.798;37.782;2024-01-27T02:43:00;20.30;;;13.50;;
33421;SDS011;19763;55.798;37.782;2024-01-27T02:45:26;19.75;;;13.02;;
33421;SDS011;19763;55.798;37.782;2024-01-27T02:47:51;21.85;;;14.00;;
33421;SDS011;19763;55.798;37.782;2024-01-27T02:50:17;20.40;;;13.05;;
33421;SDS011;19763;55.798;37.782;2024-01-27T02:52:43;19.90;;;13.52;;
33421;SDS011;19763;55.798;37.782;2024-01-27T02:55:09;17.77;;;12.65;;
33421;SDS011;19763;55.798;37.782;2024-01-27T02:57:34;18.60;;;12.65;;
33421;SDS011;19763;55.798;37.782;2024-01-27T03:00:00;17.42;;;12.25;;
33421;SDS011;19763;55.798;37.782;2024-01-27T03:02:25;20.73;;;12.15;;
33421;SDS011;19763;55.798;37.782;2024-01-27T03:04:51;17.20;;;11.57;;
33421;SDS011;19763;55.798;37.782;2024-01-27T03:07:17;16.55;;;11.27;;
33421;SDS011;19763;55.798;37.782;2024-01-27T03:09:42;19.60;;;12.20;;
33421;SDS011;19763;55.798;37.782;2024-01-27T03:12:08;18.02;;;12.35;;
33421;SDS011;19763;55.798;37.782;2024-01-27T03:14:34;17.48;;;12.50;;
33421;SDS011;19763;55.798;37.782;2024-01-27T03:16:59;17.02;;;11.23;;
33421;SDS011;19763;55.798;37.782;2024-01-27T03:19:25;17.52;;;11.75;;
33421;SDS011;19763;55.798;37.782;2024-01-27T03:21:51;17.15;;;11.98;;
33421;SDS011;19763;55.798;37.782;2024-01-27T03:24:16;15.32;;;10.98;;
33421;SDS011;19763;55.798;37.782;2024-01-27T03:26:42;19.13;;;11.88;;
33421;SDS011;19763;55.798;37.782;2024-01-27T03:29:07;20.17;;;12.73;;
33421;SDS011;19763;55.798;37.782;2024-01-27T03:31:33;19.20;;;11.68;;
33421;SDS011;19763;55.798;37.782;2024-01-27T03:33:59;20.25;;;11.63;;
33421;SDS011;19763;55.798;37.782;2024-01-27T03:36:25;18.52;;;11.30;;
33421;SDS011;19763;55.798;37.782;2024-01-27T03:38:51;17.23;;;11.25;;
33421;SDS011;19763;55.798;37.782;2024-01-27T03:41:16;19.58;;;11.70;;
33421;SDS011;19763;55.798;37.782;2024-01-27T03:43:42;15.25;;;10.13;;
33421;SDS011;19763;55.798;37.782;2024-01-27T03:46:08;14.05;;;9.82;;
33421;SDS011;19763;55.798;37.782;2024-01-27T03:48:33;14.98;;;10.38;;
33421;SDS011;19763;55.798;37.782;2024-01-27T03:51:02;17.98;;;11.63;;
33421;SDS011;19763;55.798;37.782;2024-01-27T03:53:28;15.30;;;10.80;;
33421;SDS011;19763;55.798;37.782;2024-01-27T03:55:53;18.45;;;11.43;;
33421;SDS011;19763;55.798;37.782;2024-01-27T03:58:19;15.95;;;11.00;;
33421;SDS011;19763;55.798;37.782;2024-01-27T04:00:45;17.05;;;11.02;;
33421;SDS011;19763;55.798;37.782;2024-01-27T04:03:11;16.25;;;11.20;;
33421;SDS011;19763;55.798;37.782;2024-01-27T04:05:36;16.42;;;10.50;;
33421;SDS011;19763;55.798;37.782;2024-01-27T04:08:03;16.83;;;12.05;;
33421;SDS011;19763;55.798;37.782;2024-01-27T04:10:30;15.93;;;11.45;;
33421;SDS011;19763;55.798;37.782;2024-01-27T04:12:55;17.92;;;12.88;;
33421;SDS011;19763;55.798;37.782;2024-01-27T04:15:21;20.40;;;12.63;;
33421;SDS011;19763;55.798;37.782;2024-01-27T04:17:46;16.38;;;11.70;;
33421;SDS011;19763;55.798;37.782;2024-01-27T04:20:12;19.65;;;12.38;;
33421;SDS011;19763;55.798;37.782;2024-01-27T04:22:38;20.55;;;13.10;;
33421;SDS011;19763;55.798;37.782;2024-01-27T04:25:03;17.45;;;12.38;;
33421;SDS011;19763;55.798;37.782;2024-01-27T04:27:29;18.92;;;12.95;;
33421;SDS011;19763;55.798;37.782;2024-01-27T04:29:55;18.05;;;12.75;;
33421;SDS011;19763;55.798;37.782;2024-01-27T04:32:24;17.55;;;12.30;;
33421;SDS011;19763;55.798;37.782;2024-01-27T04:34:51;17.73;;;12.43;;
33421;SDS011;19763;55.798;37.782;2024-01-27T04:37:17;17.00;;;12.18;;
33421;SDS011;19763;55.798;37.782;2024-01-27T04:39:43;18.27;;;13.27;;
33421;SDS011;19763;55.798;37.782;2024-01-27T04:42:08;20.73;;;13.55;;
33421;SDS011;19763;55.798;37.782;2024-01-27T04:44:34;19.67;;;12.88;;
33421;SDS011;19763;55.798;37.782;2024-01-27T04:47:00;18.98;;;12.48;;
33421;SDS011;19763;55.798;37.782;2024-01-27T04:49:26;19.73;;;13.57;;
33421;SDS011;19763;55.798;37.782;2024-01-27T04:51:52;17.73;;;12.65;;
33421;SDS011;19763;55.798;37.782;2024-01-27T04:54:18;19.45;;;12.43;;
33421;SDS011;19763;55.798;37.782;2024-01-27T04:56:43;17.30;;;12.75;;
33421;SDS011;19763;55.798;37.782;2024-01-27T04:59:09;16.67;;;11.82;;
33421;SDS011;19763;55.798;37.782;2024-01-27T05:01:35;18.17;;;12.27;;
33421;SDS011;19763;55.798;37.782;2024-01-27T05:04:00;19.85;;;12.27;;
33421;SDS011;19763;55.798;37.782;2024-01-27T05:06:26;18.23;;;12.18;;
33421;SDS011;19763;55.798;37.782;2024-01-27T05:08:51;16.70;;;12.05;;
33421;SDS011;19763;55.798;37.782;2024-01-27T05:11:38;17.98;;;12.10;;
33421;SDS011;19763;55.798;37.782;2024-01-27T05:14:03;18.83;;;12.55;;
33421;SDS011;19763;55.798;37.782;2024-01-27T05:16:28;17.80;;;12.70;;
33421;SDS011;19763;55.798;37.782;2024-01-27T05:18:54;19.50;;;12.70;;
33421;SDS011;19763;55.798;37.782;2024-01-27T05:21:19;15.15;;;11.32;;
33421;SDS011;19763;55.798;37.782;2024-01-27T05:23:45;20.63;;;13.50;;
33421;SDS011;19763;55.798;37.782;2024-01-27T05:26:10;20.85;;;13.63;;
33421;SDS011;19763;55.798;37.782;2024-01-27T05:28:36;21.10;;;12.82;;
33421;SDS011;19763;55.798;37.782;2024-01-27T05:31:03;18.83;;;13.13;;
33421;SDS011;19763;55.798;37.782;2024-01-27T05:33:32;18.60;;;13.13;;
33421;SDS011;19763;55.798;37.782;2024-01-27T05:35:57;18.20;;;12.43;;
33421;SDS011;19763;55.798;37.782;2024-01-27T05:38:23;19.38;;;13.48;;
33421;SDS011;19763;55.798;37.782;2024-01-27T05:40:49;17.33;;;12.10;;
33421;SDS011;19763;55.798;37.782;2024-01-27T05:43:15;19.60;;;12.38;;
33421;SDS011;19763;55.798;37.782;2024-01-27T05:45:41;22.15;;;13.85;;
33421;SDS011;19763;55.798;37.782;2024-01-27T05:48:07;21.02;;;13.05;;
33421;SDS011;19763;55.798;37.782;2024-01-27T05:50:32;18.75;;;12.43;;
33421;SDS011;19763;55.798;37.782;2024-01-27T05:52:59;19.70;;;13.32;;
33421;SDS011;19763;55.798;37.782;2024-01-27T05:55:25;20.02;;;13.20;;
33421;SDS011;19763;55.798;37.782;2024-01-27T05:57:50;19.58;;;13.05;;
33421;SDS011;19763;55.798;37.782;2024-01-27T06:00:16;19.65;;;13.75;;
33421;SDS011;19763;55.798;37.782;2024-01-27T06:02:42;18.95;;;12.50;;
33421;SDS011;19763;55.798;37.782;2024-01-27T06:05:07;22.65;;;14.52;;
33421;SDS011;19763;55.798;37.782;2024-01-27T06:07:34;21.63;;;13.27;;
33421;SDS011;19763;55.798;37.782;2024-01-27T06:10:03;21.65;;;14.05;;
33421;SDS011;19763;55.798;37.782;2024-01-27T06:12:29;22.38;;;13.80;;
33421;SDS011;19763;55.798;37.782;2024-01-27T06:14:56;22.85;;;13.95;;
33421;SDS011;19763;55.798;37.782;2024-01-27T06:17:23;21.27;;;14.52;;
33421;SDS011;19763;55.798;37.782;2024-01-27T06:19:49;21.40;;;14.35;;
33421;SDS011;19763;55.798;37.782;2024-01-27T06:22:14;25.90;;;15.00;;
33421;SDS011;19763;55.798;37.782;2024-01-27T06:24:43;24.52;;;15.18;;
33421;SDS011;19763;55.798;37.782;2024-01-27T06:27:09;24.75;;;15.93;;
33421;SDS011;19763;55.798;37.782;2024-01-27T06:29:35;24.77;;;14.65;;
33421;SDS011;19763;55.798;37.782;2024-01-27T06:32:01;23.95;;;14.85;;
33421;SDS011;19763;55.798;37.782;2024-01-27T06:34:26;22.85;;;14.60;;
33421;SDS011;19763;55.798;37.782;2024-01-27T06:36:52;20.85;;;14.32;;
33421;SDS011;19763;55.798;37.782;2024-01-27T06:39:17;25.67;;;14.85;;
33421;SDS011;19763;55.798;37.782;2024-01-27T06:41:43;22.92;;;14.90;;
33421;SDS011;19763;55.798;37.782;2024-01-27T06:44:09;23.23;;;15.52;;
33421;SDS011;19763;55.798;37.782;2024-01-27T06:46:34;23.30;;;14.50;;
33421;SDS011;19763;55.798;37.782;2024-01-27T06:49:00;21.75;;;14.43;;
33421;SDS011;19763;55.798;37.782;2024-01-27T06:51:25;24.67;;;15.20;;
33421;SDS011;19763;55.798;37.782;2024-01-27T06:53:51;23.20;;;13.95;;
33421;SDS011;19763;55.798;37.782;2024-01-27T06:56:16;23.73;;;14.38;;
33421;SDS011;19763;55.798;37.782;2024-01-27T06:58:42;23.25;;;14.60;;
33421;SDS011;19763;55.798;37.782;2024-01-27T07:01:08;25.50;;;15.10;;
33421;SDS011;19763;55.798;37.782;2024-01-27T07:03:33;22.52;;;14.88;;
33421;SDS011;19763;55.798;37.782;2024-01-27T07:05:59;22.52;;;14.75;;
33421;SDS011;19763;55.798;37.782;2024-01-27T07:08:26;22.40;;;14.07;;
33421;SDS011;19763;55.798;37.782;2024-01-27T07:10:52;24.85;;;15.38;;
33421;SDS011;19763;55.798;37.782;2024-01-27T07:13:17;22.30;;;14.20;;
33421;SDS011;19763;55.798;37.782;2024-01-27T07:15:43;23.00;;;15.10;;
33421;SDS011;19763;55.798;37.782;2024-01-27T07:18:08;24.42;;;13.88;;
33421;SDS011;19763;55.798;37.782;2024-01-27T07:20:35;24.77;;;14.52;;
33421;SDS011;19763;55.798;37.782;2024-01-27T07:23:01;22.80;;;13.68;;
33421;SDS011;19763;55.798;37.782;2024-01-27T07:25:26;22.15;;;13.75;;
33421;SDS011;19763;55.798;37.782;2024-01-27T07:27:53;22.08;;;13.98;;
33421;SDS011;19763;55.798;37.782;2024-01-27T07:30:19;25.42;;;14.50;;
33421;SDS011;19763;55.798;37.782;2024-01-27T07:32:45;22.80;;;14.32;;
33421;SDS011;19763;55.798;37.782;2024-01-27T07:35:10;22.20;;;13.18;;
33421;SDS011;19763;55.798;37.782;2024-01-27T07:37:36;20.15;;;12.93;;
33421;SDS011;19763;55.798;37.782;2024-01-27T07:40:02;23.85;;;14.68;;
33421;SDS011;19763;55.798;37.782;2024-01-27T07:42:28;21.83;;;14.63;;
33421;SDS011;19763;55.798;37.782;2024-01-27T07:44:53;22.83;;;14.95;;
33421;SDS011;19763;55.798;37.782;2024-01-27T07:47:19;37.25;;;21.13;;
33421;SDS011;19763;55.798;37.782;2024-01-27T07:49:45;22.10;;;14.77;;
33421;SDS011;19763;55.798;37.782;2024-01-27T07:52:11;20.75;;;13.73;;
33421;SDS011;19763;55.798;37.782;2024-01-27T07:54:36;25.38;;;14.80;;
33421;SDS011;19763;55.798;37.782;2024-01-27T07:57:04;20.33;;;14.20;;
33421;SDS011;19763;55.798;37.782;2024-01-27T07:59:30;24.40;;;14.98;;
33421;SDS011;19763;55.798;37.782;2024-01-27T08:01:56;29.20;;;14.32;;
33421;SDS011;19763;55.798;37.782;2024-01-27T08:04:21;47.92;;;27.38;;
33421;SDS011;19763;55.798;37.782;2024-01-27T08:06:47;26.17;;;14.95;;
33421;SDS011;19763;55.798;37.782;2024-01-27T08:09:14;22.98;;;13.77;;
33421;SDS011;19763;55.798;37.782;2024-01-27T08:11:41;20.02;;;13.45;;
33421;SDS011;19763;55.798;37.782;2024-01-27T08:14:06;23.92;;;14.73;;
33421;SDS011;19763;55.798;37.782;2024-01-27T08:16:32;21.35;;;14.02;;
33421;SDS011;19763;55.798;37.782;2024-01-27T08:18:58;24.95;;;15.35;;
33421;SDS011;19763;55.798;37.782;2024-01-27T08:21:23;21.98;;;14.25;;
33421;SDS011;19763;55.798;37.782;2024-01-27T08:23:49;26.27;;;14.07;;
33421;SDS011;19763;55.798;37.782;2024-01-27T08:26:14;20.50;;;13.85;;
33421;SDS011;19763;55.798;37.782;2024-01-27T08:28:40;25.17;;;15.15;;
33421;SDS011;19763;55.798;37.782;2024-01-27T08:31:06;23.20;;;14.18;;
33421;SDS011;19763;55.798;37.782;2024-01-27T08:33:31;23.00;;;15.38;;
33421;SDS011;19763;55.798;37.782;2024-01-27T08:35:57;25.10;;;14.68;;
33421;SDS011;19763;55.798;37.782;2024-01-27T08:38:23;25.58;;;14.43;;
33421;SDS011;19763;55.798;37.782;2024-01-27T08:40:48;24.42;;;14.10;;
33421;SDS011;19763;55.798;37.782;2024-01-27T08:43:14;21.30;;;13.98;;
33421;SDS011;19763;55.798;37.782;2024-01-27T08:45:39;31.30;;;16.13;;
33421;SDS011;19763;55.798;37.782;2024-01-27T08:48:05;33.60;;;19.98;;
33421;SDS011;19763;55.798;37.782;2024-01-27T08:50:31;22.40;;;13.57;;
33421;SDS011;19763;55.798;37.782;2024-01-27T08:52:57;21.77;;;14.35;;
33421;SDS011;19763;55.798;37.782;2024-01-27T08:55:23;25.13;;;14.63;;
33421;SDS011;19763;55.798;37.782;2024-01-27T08:57:49;21.25;;;13.05;;
33421;SDS011;19763;55.798;37.782;2024-01-27T09:00:16;22.60;;;13.55;;
33421;SDS011;19763;55.798;37.782;2024-01-27T09:02:42;22.77;;;13.85;;
33421;SDS011;19763;55.798;37.782;2024-01-27T09:05:08;21.80;;;13.68;;
33421;SDS011;19763;55.798;37.782;2024-01-27T09:07:34;21.60;;;14.68;;
33421;SDS011;19763;55.798;37.782;2024-01-27T09:10:00;25.45;;;13.55;;
33421;SDS011;19763;55.798;37.782;2024-01-27T09:12:26;20.80;;;13.35;;
33421;SDS011;19763;55.798;37.782;2024-01-27T09:14:51;28.48;;;15.82;;
33421;SDS011;19763;55.798;37.782;2024-01-27T09:17:19;22.88;;;14.45;;
33421;SDS011;19763;55.798;37.782;2024-01-27T09:19:45;24.63;;;14.18;;
33421;SDS011;19763;55.798;37.782;2024-01-27T09:22:10;24.38;;;13.48;;
33421;SDS011;19763;55.798;37.782;2024-01-27T09:24:36;21.55;;;14.57;;
33421;SDS011;19763;55.798;37.782;2024-01-27T09:27:02;24.38;;;15.20;;
33421;SDS011;19763;55.798;37.782;2024-01-27T09:29:29;24.42;;;14.68;;
33421;SDS011;19763;55.798;37.782;2024-01-27T09:31:54;21.90;;;14.55;;
33421;SDS011;19763;55.798;37.782;2024-01-27T09:34:20;22.98;;;14.98;;
33421;SDS011;19763;55.798;37.782;2024-01-27T09:36:46;22.42;;;15.10;;
33421;SDS011;19763;55.798;37.782;2024-01-27T09:39:12;29.63;;;14.80;;
33421;SDS011;19763;55.798;37.782;2024-01-27T09:41:37;27.05;;;15.85;;
33421;SDS011;19763;55.798;37.782;2024-01-27T09:44:04;21.42;;;14.55;;
33421;SDS011;19763;55.798;37.782;2024-01-27T09:46:30;25.13;;;15.27;;
33421;SDS011;19763;55.798;37.782;2024-01-27T09:48:57;20.95;;;14.43;;
33421;SDS011;19763;55.798;37.782;2024-01-27T09:51:24;24.65;;;15.65;;
33421;SDS011;19763;55.798;37.782;2024-01-27T09:53:50;23.38;;;14.60;;
33421;SDS011;19763;55.798;37.782;2024-01-27T09:56:16;24.17;;;14.88;;
33421;SDS011;19763;55.798;37.782;2024-01-27T09:58:46;25.65;;;15.70;;
33421;SDS011;19763;55.798;37.782;2024-01-27T10:01:16;22.70;;;15.45;;
33421;SDS011;19763;55.798;37.782;2024-01-27T10:03:43;24.90;;;15.35;;
33421;SDS011;19763;55.798;37.782;2024-01-27T10:06:09;21.60;;;15.43;;
33421;SDS011;19763;55.798;37.782;2024-01-27T10:08:35;23.27;;;15.20;;
33421;SDS011;19763;55.798;37.782;2024-01-27T10:11:06;23.17;;;15.15;;
33421;SDS011;19763;55.798;37.782;2024-01-27T10:13:33;22.27;;;15.20;;
33421;SDS011;19763;55.798;37.782;2024-01-27T10:16:03;20.83;;;14.27;;
33421;SDS011;19763;55.798;37.782;2024-01-27T10:18:33;21.40;;;14.52;;
33421;SDS011;19763;55.798;37.782;2024-01-27T10:21:00;19.63;;;13.48;;
33421;SDS011;19763;55.798;37.782;2024-01-27T10:23:38;25.90;;;16.02;;
33421;SDS011;19763;55.798;37.782;2024-01-27T10:26:04;21.60;;;15.50;;
33421;SDS011;19763;55.798;37.782;2024-01-27T10:28:30;21.83;;;14.57;;
33421;SDS011;19763;55.798;37.782;2024-01-27T10:31:08;26.27;;;15.88;;
33421;SDS011;19763;55.798;37.782;2024-01-27T10:33:34;26.38;;;15.27;;
33421;SDS011;19763;55.798;37.782;2024-01-27T10:36:00;24.38;;;15.70;;
33421;SDS011;19763;55.798;37.782;2024-01-27T10:38:35;25.15;;;15.75;;
33421;SDS011;19763;55.798;37.782;2024-01-27T10:41:03;26.27;;;17.20;;
33421;SDS011;19763;55.798;37.782;2024-01-27T10:46:00;26.77;;;17.05;;
33421;SDS011;19763;55.798;37.782;2024-01-27T10:48:30;27.15;;;19.00;;
33421;SDS011;19763;55.798;37.782;2024-01-27T10:50:59;27.67;;;19.05;;
33421;SDS011;19763;55.798;37.782;2024-01-27T10:53:28;27.00;;;17.73;;
33421;SDS011;19763;55.798;37.782;2024-01-27T10:56:00;28.38;;;18.33;;
33421;SDS011;19763;55.798;37.782;2024-01-27T10:58:29;30.08;;;18.48;;
33421;SDS011;19763;55.798;37.782;2024-01-27T11:00:56;25.92;;;17.83;;
33421;SDS011;19763;55.798;37.782;2024-01-27T11:03:24;29.55;;;18.70;;
33421;SDS011;19763;55.798;37.782;2024-01-27T11:05:51;29.48;;;19.27;;
33421;SDS011;19763;55.798;37.782;2024-01-27T11:08:18;31.10;;;19.83;;
33421;SDS011;19763;55.798;37.782;2024-01-27T11:10:44;29.48;;;19.70;;
33421;SDS011;19763;55.798;37.782;2024-01-27T11:13:11;26.35;;;16.98;;
33421;SDS011;19763;55.798;37.782;2024-01-27T11:15:37;27.92;;;17.75;;
33421;SDS011;19763;55.798;37.782;2024-01-27T11:18:02;27.90;;;18.70;;
33421;SDS011;19763;55.798;37.782;2024-01-27T11:20:32;28.90;;;19.08;;
33421;SDS011;19763;55.798;37.782;2024-01-27T11:23:14;33.10;;;19.38;;
33421;SDS011;19763;55.798;37.782;2024-01-27T11:25:41;29.52;;;18.73;;
33421;SDS011;19763;55.798;37.782;2024-01-27T11:28:16;28.73;;;18.30;;
33421;SDS011;19763;55.798;37.782;2024-01-27T11:30:45;27.20;;;18.02;;
33421;SDS011;19763;55.798;37.782;2024-01-27T11:33:12;31.42;;;18.48;;
33421;SDS011;19763;55.798;37.782;2024-01-27T11:35:38;28.48;;;19.13;;
33421;SDS011;19763;55.798;37.782;2024-01-27T11:38:03;29.38;;;18.83;;
33421;SDS011;19763;55.798;37.782;2024-01-27T11:40:29;27.38;;;17.60;;
33421;SDS011;19763;55.798;37.782;2024-01-27T11:42:58;28.85;;;18.50;;
33421;SDS011;19763;55.798;37.782;2024-01-27T11:45:25;29.23;;;19.25;;
33421;SDS011;19763;55.798;37.782;2024-01-27T11:47:54;28.45;;;19.65;;
33421;SDS011;19763;55.798;37.782;2024-01-27T11:50:21;30.02;;;19.90;;
33421;SDS011;19763;55.798;37.782;2024-01-27T11:52:46;29.23;;;19.85;;
33421;SDS011;19763;55.798;37.782;2024-01-27T11:55:12;28.83;;;19.35;;
33421;SDS011;19763;55.798;37.782;2024-01-27T11:57:40;26.65;;;19.67;;
33421;SDS011;19763;55.798;37.782;2024-01-27T12:00:07;29.35;;;19.88;;
33421;SDS011;19763;55.798;37.782;2024-01-27T12:02:37;32.58;;;19.95;;
33421;SDS011;19763;55.798;37.782;2024-01-27T12:05:06;33.28;;;21.50;;
33421;SDS011;19763;55.798;37.782;2024-01-27T12:07:33;33.50;;;21.95;;
33421;SDS011;19763;55.798;37.782;2024-01-27T12:09:59;30.23;;;20.27;;
33421;SDS011;19763;55.798;37.782;2024-01-27T12:12:24;27.65;;;19.92;;
33421;SDS011;19763;55.798;37.782;2024-01-27T12:14:50;26.30;;;18.80;;
33421;SDS011;19763;55.798;37.782;2024-01-27T12:17:17;28.23;;;19.23;;
33421;SDS011;19763;55.798;37.782;2024-01-27T12:19:50;28.92;;;18.40;;
33421;SDS011;19763;55.798;37.782;2024-01-27T12:22:23;29.25;;;19.65;;
33421;SDS011;19763;55.798;37.782;2024-01-27T12:24:51;33.05;;;20.52;;
33421;SDS011;19763;55.798;37.782;2024-01-27T12:27:18;30.55;;;19.73;;
33421;SDS011;19763;55.798;37.782;2024-01-27T12:29:45;28.38;;;18.63;;
33421;SDS011;19763;55.798;37.782;2024-01-27T12:32:12;26.33;;;18.23;;
33421;SDS011;19763;55.798;37.782;2024-01-27T12:34:40;26.58;;;18.10;;
33421;SDS011;19763;55.798;37.782;2024-01-27T12:37:07;29.58;;;19.08;;
33421;SDS011;19763;55.798;37.782;2024-01-27T12:39:34;28.67;;;17.92;;
33421;SDS011;19763;55.798;37.782;2024-01-27T12:41:59;25.73;;;17.60;;
33421;SDS011;19763;55.798;37.782;2024-01-27T12:44:25;30.95;;;19.60;;
33421;SDS011;19763;55.798;37.782;2024-01-27T12:46:50;29.10;;;19.55;;
33421;SDS011;19763;55.798;37.782;2024-01-27T12:49:16;29.67;;;18.75;;
33421;SDS011;19763;55.798;37.782;2024-01-27T12:51:42;27.67;;;18.02;;
33421;SDS011;19763;55.798;37.782;2024-01-27T12:54:08;26.52;;;17.30;;
33421;SDS011;19763;55.798;37.782;2024-01-27T12:56:34;29.15;;;19.05;;
33421;SDS011;19763;55.798;37.782;2024-01-27T12:59:00;25.63;;;18.17;;
33421;SDS011;19763;55.798;37.782;2024-01-27T13:01:26;29.33;;;19.48;;
33421;SDS011;19763;55.798;37.782;2024-01-27T13:03:52;25.75;;;18.55;;
33421;SDS011;19763;55.798;37.782;2024-01-27T13:06:18;25.73;;;17.13;;
33421;SDS011;19763;55.798;37.782;2024-01-27T13:08:44;25.30;;;17.98;;
33421;SDS011;19763;55.798;37.782;2024-01-27T13:11:10;27.02;;;17.65;;
33421;SDS011;19763;55.798;37.782;2024-01-27T13:13:37;29.98;;;19.42;;
33421;SDS011;19763;55.798;37.782;2024-01-27T13:16:03;25.52;;;17.88;;
33421;SDS011;19763;55.798;37.782;2024-01-27T13:18:29;28.05;;;19.10;;
33421;SDS011;19763;55.798;37.782;2024-01-27T13:20:55;27.90;;;18.92;;
33421;SDS011;19763;55.798;37.782;2024-01-27T13:23:20;29.65;;;19.35;;
33421;SDS011;19763;55.798;37.782;2024-01-27T13:25:46;31.65;;;18.85;;
33421;SDS011;19763;55.798;37.782;2024-01-27T13:28:11;27.60;;;18.75;;
33421;SDS011;19763;55.798;37.782;2024-01-27T13:30:37;26.40;;;17.95;;
33421;SDS011;19763;55.798;37.782;2024-01-27T13:33:03;30.70;;;18.52;;
33421;SDS011;19763;55.798;37.782;2024-01-27T13:35:29;30.42;;;18.77;;
33421;SDS011;19763;55.798;37.782;2024-01-27T13:37:55;30.38;;;18.42;;
33421;SDS011;19763;55.798;37.782;2024-01-27T13:40:20;27.38;;;18.50;;
33421;SDS011;19763;55.798;37.782;2024-01-27T13:42:46;30.38;;;19.40;;
33421;SDS011;19763;55.798;37.782;2024-01-27T13:45:11;28.83;;;18.65;;
33421;SDS011;19763;55.798;37.782;2024-01-27T13:47:37;28.55;;;19.35;;
33421;SDS011;19763;55.798;37.782;2024-01-27T13:50:03;31.52;;;20.75;;
33421;SDS011;19763;55.798;37.782;2024-01-27T13:52:29;29.48;;;19.95;;
33421;SDS011;19763;55.798;37.782;2024-01-27T13:54:55;28.60;;;19.50;;
33421;SDS011;19763;55.798;37.782;2024-01-27T13:57:21;32.35;;;18.38;;
33421;SDS011;19763;55.798;37.782;2024-01-27T13:59:47;28.70;;;17.73;;
33421;SDS011;19763;55.798;37.782;2024-01-27T14:02:12;27.25;;;18.90;;
33421;SDS011;19763;55.798;37.782;2024-01-27T14:04:38;28.85;;;18.27;;